createdAt,value
2023-03-29T00:00:09.473Z,67.55
2023-03-29T00:02:39.180Z,67.17
2023-03-29T00:05:07.692Z,67.23
2023-03-29T00:07:35.518Z,67.79
2023-03-29T00:10:04.879Z,67.55
2023-03-29T00:12:33.028Z,66.82
2023-03-29T00:15:00.547Z,66.92
2023-03-29T00:17:28.430Z,67.71
2023-03-29T00:19:56.300Z,67.57
2023-03-29T00:22:24.132Z,66.94
2023-03-29T00:24:54.306Z,66.55
2023-03-29T00:27:23.023Z,66.86
2023-03-29T00:29:50.378Z,66.50
2023-03-29T00:32:17.710Z,67.36
2023-03-29T00:34:46.252Z,66.16
2023-03-29T00:37:15.052Z,66.98
2023-03-29T00:39:42.584Z,65.70
2023-03-29T00:42:15.521Z,65.48
2023-03-29T00:45:04.221Z,66.27
2023-03-29T00:47:41.826Z,65.93
2023-03-29T00:50:13.330Z,65.20
2023-03-29T00:52:42.927Z,64.48
2023-03-29T00:55:15.765Z,62.70
2023-03-29T00:57:46.864Z,64.25
2023-03-29T01:00:21.048Z,64.24
2023-03-29T01:02:54.469Z,64.42
2023-03-29T01:05:32.373Z,62.65
2023-03-29T01:08:18.241Z,62.33
2023-03-29T01:10:52.475Z,62.48
2023-03-29T01:13:28.840Z,62.42
2023-03-29T01:15:58.706Z,61.84
2023-03-29T01:18:26.343Z,62.11
2023-03-29T01:21:12.742Z,61.09
2023-03-29T01:23:54.798Z,60.75
2023-03-29T01:26:51.319Z,60.37
2023-03-29T01:29:30.205Z,62.19
2023-03-29T01:32:09.150Z,61.70
2023-03-29T01:34:53.355Z,63.13
2023-03-29T01:37:39.552Z,60.94
2023-03-29T01:40:07.836Z,61.34
2023-03-29T01:43:04.761Z,61.00
2023-03-29T01:45:46.958Z,60.01
2023-03-29T01:48:19.183Z,60.66
2023-03-29T01:51:13.759Z,59.39
2023-03-29T01:53:47.005Z,61.15
2023-03-29T01:56:23.069Z,60.16
2023-03-29T01:58:54.649Z,59.47
2023-03-29T02:01:30.195Z,61.04
2023-03-29T02:04:03.955Z,59.58
2023-03-29T02:06:34.268Z,61.23
2023-03-29T02:09:03.917Z,60.95
2023-03-29T02:11:31.135Z,60.86
2023-03-29T02:13:58.766Z,62.16
2023-03-29T02:16:26.053Z,60.91
2023-03-29T02:18:56.526Z,61.65
2023-03-29T02:21:36.598Z,60.93
2023-03-29T02:24:08.139Z,61.01
2023-03-29T02:26:36.409Z,61.87
2023-03-29T02:29:03.934Z,61.37
2023-03-29T02:31:38.112Z,60.71
2023-03-29T02:34:08.972Z,61.40
2023-03-29T02:36:58.972Z,61.08
2023-03-29T02:39:29.251Z,61.11
2023-03-29T02:41:59.632Z,61.35
2023-03-29T02:44:29.886Z,62.05
2023-03-29T02:47:02.302Z,61.96
2023-03-29T02:49:30.161Z,61.60
2023-03-29T02:52:07.542Z,61.38
2023-03-29T02:54:38.095Z,62.26
2023-03-29T02:57:08.781Z,61.63
2023-03-29T02:59:38.718Z,60.86
2023-03-29T03:02:06.148Z,60.55
2023-03-29T03:04:35.730Z,61.57
2023-03-29T03:07:05.452Z,59.94
2023-03-29T03:09:32.997Z,61.80
2023-03-29T03:12:00.654Z,61.08
2023-03-29T03:14:28.405Z,61.55
2023-03-29T03:16:58.001Z,60.67
2023-03-29T03:19:25.393Z,60.47
2023-03-29T03:21:53.092Z,60.90
2023-03-29T03:24:21.188Z,61.21
2023-03-29T03:26:48.540Z,59.00
2023-03-29T03:29:16.738Z,60.54
2023-03-29T03:31:45.863Z,60.11
2023-03-29T03:34:13.500Z,60.73
2023-03-29T03:36:41.483Z,59.67
2023-03-29T03:39:09.902Z,59.95
2023-03-29T03:41:37.300Z,59.67
2023-03-29T03:44:05.789Z,58.91
2023-03-29T03:46:33.424Z,59.99
2023-03-29T03:49:00.956Z,59.79
2023-03-29T03:51:28.755Z,59.95
2023-03-29T03:53:56.306Z,61.07
2023-03-29T03:56:26.011Z,60.16
2023-03-29T03:58:54.764Z,58.80
2023-03-29T04:01:22.043Z,58.90
2023-03-29T04:03:49.904Z,58.84
2023-03-29T04:06:18.153Z,59.18
2023-03-29T04:08:48.386Z,57.43
2023-03-29T04:11:16.459Z,57.13
2023-03-29T04:13:43.901Z,57.61
2023-03-29T04:16:16.784Z,57.98
2023-03-29T04:18:44.775Z,57.86
2023-03-29T04:21:12.913Z,58.18
2023-03-29T04:23:40.428Z,57.42
2023-03-29T04:26:08.062Z,57.34
2023-03-29T04:28:36.385Z,56.94
2023-03-29T04:31:04.880Z,57.30
2023-03-29T04:33:33.102Z,56.62
2023-03-29T04:36:00.667Z,56.68
2023-03-29T04:38:28.434Z,56.10
2023-03-29T04:40:56.421Z,55.62
2023-03-29T04:43:24.270Z,56.90
2023-03-29T04:45:52.733Z,56.26
2023-03-29T04:48:23.961Z,55.22
2023-03-29T04:50:54.612Z,54.72
2023-03-29T04:53:22.871Z,55.54
2023-03-29T04:55:50.649Z,56.17
2023-03-29T04:58:20.087Z,54.57
2023-03-29T05:00:50.300Z,54.64
2023-03-29T05:03:18.812Z,54.09
2023-03-29T05:05:47.856Z,53.26
2023-03-29T05:08:16.354Z,54.65
2023-03-29T05:10:45.059Z,53.73
2023-03-29T05:13:12.849Z,52.18
2023-03-29T05:15:41.939Z,54.75
2023-03-29T05:18:09.904Z,52.87
2023-03-29T05:20:38.019Z,52.84
2023-03-29T05:23:05.791Z,52.67
2023-03-29T05:25:37.188Z,52.62
2023-03-29T05:28:04.733Z,52.01
2023-03-29T05:30:32.726Z,50.89
2023-03-29T05:33:02.437Z,51.50
2023-03-29T05:35:30.796Z,52.18
2023-03-29T05:38:00.701Z,51.57
2023-03-29T05:40:28.424Z,49.92
2023-03-29T05:42:56.654Z,48.83
2023-03-29T05:45:24.901Z,48.01
2023-03-29T05:47:52.338Z,48.11
2023-03-29T05:50:20.087Z,49.17
2023-03-29T05:52:48.836Z,50.68
2023-03-29T05:55:16.210Z,50.94
2023-03-29T05:57:43.758Z,51.92
2023-03-29T06:00:25.713Z,52.98
2023-03-29T06:02:59.283Z,53.77
2023-03-29T06:05:35.227Z,52.94
2023-03-29T06:08:03.500Z,53.57
2023-03-29T06:10:33.101Z,53.61
2023-03-29T06:13:02.155Z,52.02
2023-03-29T06:15:33.183Z,53.17
2023-03-29T06:18:02.572Z,52.45
2023-03-29T06:20:30.390Z,52.66
2023-03-29T06:22:58.603Z,52.22
2023-03-29T06:25:25.864Z,52.06
2023-03-29T06:27:54.373Z,51.43
2023-03-29T06:30:21.769Z,51.34
2023-03-29T06:32:50.640Z,51.48
2023-03-29T06:35:18.680Z,51.65
2023-03-29T06:37:53.847Z,50.54
2023-03-29T06:40:24.884Z,50.86
2023-03-29T06:42:57.919Z,50.12
2023-03-29T06:45:29.491Z,50.79
2023-03-29T06:47:57.865Z,49.88
2023-03-29T06:50:26.649Z,50.65
2023-03-29T06:52:54.214Z,48.86
2023-03-29T06:55:23.412Z,48.84
2023-03-29T06:57:58.259Z,47.56
2023-03-29T07:00:30.074Z,47.57
2023-03-29T07:03:01.055Z,48.12
2023-03-29T07:05:33.625Z,48.51
2023-03-29T07:08:05.870Z,47.96
2023-03-29T07:10:38.529Z,48.06
2023-03-29T07:13:13.408Z,47.46
2023-03-29T07:15:41.892Z,48.39
2023-03-29T07:18:11.562Z,48.58
2023-03-29T07:20:39.229Z,50.75
2023-03-29T07:23:08.346Z,48.39
2023-03-29T07:25:36.689Z,48.28
2023-03-29T07:28:04.601Z,47.14
2023-03-29T07:30:32.877Z,45.75
2023-03-29T07:33:05.112Z,45.66
2023-03-29T07:35:33.894Z,46.02
2023-03-29T07:38:01.406Z,45.30
2023-03-29T07:40:29.616Z,46.10
2023-03-29T07:42:59.271Z,43.39
2023-03-29T07:45:29.206Z,44.14
2023-03-29T07:47:59.746Z,44.10
2023-03-29T07:50:28.922Z,43.60
2023-03-29T07:52:57.152Z,42.06
2023-03-29T07:55:24.570Z,40.74
2023-03-29T07:57:53.760Z,40.87
2023-03-29T08:00:22.556Z,40.24
2023-03-29T08:02:52.643Z,42.29
2023-03-29T08:05:37.753Z,40.46
2023-03-29T08:08:09.943Z,40.78
2023-03-29T08:10:41.055Z,40.63
2023-03-29T08:13:10.595Z,39.40
2023-03-29T08:15:40.288Z,38.97
2023-03-29T08:18:10.408Z,38.86
2023-03-29T08:20:38.020Z,39.25
2023-03-29T08:23:05.524Z,39.31
2023-03-29T08:25:35.512Z,38.51
2023-03-29T08:28:03.640Z,38.15
2023-03-29T08:30:32.050Z,40.16
2023-03-29T08:33:02.083Z,37.85
2023-03-29T08:35:29.864Z,36.97
2023-03-29T08:37:58.714Z,38.20
2023-03-29T08:40:30.195Z,37.87
2023-03-29T08:43:06.342Z,36.93
2023-03-29T08:45:44.093Z,37.21
2023-03-29T08:48:40.376Z,36.33
2023-03-29T08:51:28.028Z,34.75
2023-03-29T08:54:05.277Z,36.77
2023-03-29T08:56:38.612Z,34.71
2023-03-29T08:59:20.435Z,35.47
2023-03-29T09:01:50.960Z,36.57
2023-03-29T09:04:23.347Z,34.50
2023-03-29T09:06:52.212Z,34.58
2023-03-29T09:09:22.980Z,35.65
2023-03-29T09:12:12.986Z,36.12
2023-03-29T09:14:52.232Z,33.26
2023-03-29T09:17:36.360Z,34.28
2023-03-29T09:20:34.729Z,34.00
2023-03-29T09:23:19.809Z,34.03
2023-03-29T09:25:55.559Z,34.23
2023-03-29T09:28:46.728Z,34.22
2023-03-29T09:31:20.299Z,33.07
2023-03-29T09:33:58.263Z,33.52
2023-03-29T09:36:28.670Z,33.89
2023-03-29T09:38:57.661Z,34.04
2023-03-29T09:41:33.948Z,34.46
2023-03-29T09:44:12.737Z,33.03
2023-03-29T09:47:02.143Z,33.66
2023-03-29T09:49:36.504Z,32.31
2023-03-29T09:52:13.325Z,32.60
2023-03-29T09:54:44.242Z,31.38
2023-03-29T09:57:21.705Z,30.91
2023-03-29T09:59:51.973Z,31.78
2023-03-29T10:02:21.524Z,30.65
2023-03-29T10:05:01.026Z,31.45
2023-03-29T10:07:46.447Z,31.75
2023-03-29T10:10:33.571Z,32.15
2023-03-29T10:13:31.791Z,33.78
2023-03-29T10:16:08.376Z,32.34
2023-03-29T10:18:43.066Z,30.96
2023-03-29T10:21:19.072Z,30.63
2023-03-29T10:23:47.120Z,30.71
2023-03-29T10:26:23.030Z,29.74
2023-03-29T10:28:54.949Z,27.51
2023-03-29T10:31:24.106Z,28.38
2023-03-29T10:33:57.301Z,28.05
2023-03-29T10:36:27.939Z,26.86
2023-03-29T10:38:59.377Z,27.03
2023-03-29T10:41:29.880Z,28.21
2023-03-29T10:43:58.210Z,27.70
2023-03-29T10:46:32.070Z,26.96
2023-03-29T10:49:06.258Z,27.61
2023-03-29T10:51:34.727Z,25.78
2023-03-29T10:54:03.580Z,26.70
2023-03-29T10:56:42.729Z,25.80
2023-03-29T10:59:14.667Z,26.08
2023-03-29T11:02:07.631Z,26.30
2023-03-29T11:04:44.914Z,25.62
2023-03-29T11:07:15.707Z,25.34
2023-03-29T11:10:01.749Z,25.42
2023-03-29T11:12:35.261Z,26.58
2023-03-29T11:15:36.758Z,26.38
2023-03-29T11:18:24.327Z,26.24
2023-03-29T11:21:17.056Z,25.20
2023-03-29T11:24:04.881Z,26.51
2023-03-29T11:26:57.189Z,24.86
2023-03-29T11:29:41.872Z,26.50
2023-03-29T11:32:12.609Z,27.57
2023-03-29T11:34:52.884Z,27.67
2023-03-29T11:37:28.403Z,26.22
2023-03-29T11:40:07.972Z,25.41
2023-03-29T11:42:41.409Z,24.85
2023-03-29T11:45:15.355Z,25.69
2023-03-29T11:47:45.280Z,24.02
2023-03-29T11:50:33.109Z,25.09
2023-03-29T11:53:28.141Z,25.98
2023-03-29T11:55:58.622Z,26.41
2023-03-29T11:58:39.112Z,24.95
2023-03-29T12:01:34.716Z,26.62
2023-03-29T12:04:11.106Z,27.06
2023-03-29T12:06:49.037Z,23.96
2023-03-29T12:09:27.709Z,24.61
2023-03-29T12:12:20.324Z,24.15
2023-03-29T12:15:29.737Z,24.86
2023-03-29T12:18:07.264Z,25.35
2023-03-29T12:20:40.064Z,25.35
2023-03-29T12:23:13.166Z,23.34
2023-03-29T12:26:02.429Z,24.33
2023-03-29T12:29:06.941Z,24.08
2023-03-29T12:31:40.563Z,24.52
2023-03-29T12:34:35.113Z,24.21
2023-03-29T12:37:32.197Z,24.41
2023-03-29T12:40:21.056Z,24.91
2023-03-29T12:42:57.037Z,24.92
2023-03-29T12:45:43.055Z,24.66
2023-03-29T12:48:27.399Z,24.91
2023-03-29T12:51:01.210Z,25.50
2023-03-29T12:53:35.928Z,25.77
2023-03-29T12:56:04.080Z,24.42
2023-03-29T12:58:54.079Z,24.99
2023-03-29T13:01:33.807Z,25.03
2023-03-29T13:04:01.530Z,24.43
2023-03-29T13:07:03.658Z,25.29
2023-03-29T13:09:51.345Z,24.45
2023-03-29T13:12:36.037Z,23.79
2023-03-29T13:15:22.294Z,23.62
2023-03-29T13:18:11.785Z,23.64
2023-03-29T13:21:09.293Z,24.32
2023-03-29T13:23:49.973Z,24.61
2023-03-29T13:26:35.553Z,24.85
2023-03-29T13:29:37.615Z,23.63
2023-03-29T13:32:27.680Z,24.43
2023-03-29T13:34:58.012Z,24.45
2023-03-29T13:37:38.622Z,23.74
2023-03-29T13:40:32.056Z,23.59
2023-03-29T13:43:19.362Z,23.30
2023-03-29T13:46:05.813Z,23.94
2023-03-29T13:49:00.435Z,24.02
2023-03-29T13:51:34.097Z,23.35
2023-03-29T13:54:10.930Z,23.24
2023-03-29T13:57:11.967Z,23.23
2023-03-29T14:00:00.823Z,24.10
2023-03-29T14:02:33.055Z,24.47
2023-03-29T14:05:02.428Z,24.41
2023-03-29T14:07:32.794Z,24.30
2023-03-29T14:10:01.467Z,23.89
2023-03-29T14:12:36.120Z,23.36
2023-03-29T14:15:06.692Z,22.68
2023-03-29T14:17:36.995Z,22.83
2023-03-29T14:20:09.338Z,23.37
2023-03-29T14:22:38.047Z,22.30
2023-03-29T14:25:15.815Z,22.46
2023-03-29T14:27:44.363Z,22.11
2023-03-29T14:30:25.389Z,21.87
2023-03-29T14:32:53.626Z,21.75
2023-03-29T14:35:28.962Z,21.26
2023-03-29T14:37:57.336Z,21.26
2023-03-29T14:40:24.794Z,20.62
2023-03-29T14:42:52.273Z,19.58
2023-03-29T14:45:23.544Z,19.66
2023-03-29T14:47:51.750Z,19.63
2023-03-29T14:50:29.303Z,19.28
2023-03-29T14:52:58.971Z,19.09
2023-03-29T14:55:27.489Z,17.93
2023-03-29T14:57:55.654Z,18.90
2023-03-29T15:00:28.573Z,17.88
2023-03-29T15:03:01.183Z,17.26
2023-03-29T15:05:37.324Z,17.50
2023-03-29T15:08:07.761Z,17.74
2023-03-29T15:10:37.505Z,17.90
2023-03-29T15:13:06.912Z,17.59
2023-03-29T15:15:38.542Z,17.69
2023-03-29T15:18:08.276Z,17.31
2023-03-29T15:20:40.273Z,17.77
2023-03-29T15:23:16.883Z,17.78
2023-03-29T15:26:07.574Z,17.86
2023-03-29T15:28:45.042Z,18.30
2023-03-29T15:31:15.481Z,17.83
2023-03-29T15:33:43.064Z,18.25
2023-03-29T15:36:13.310Z,18.83
2023-03-29T15:38:45.028Z,19.00
2023-03-29T15:41:14.685Z,19.31
2023-03-29T15:43:43.229Z,19.45
2023-03-29T15:46:16.959Z,19.18
2023-03-29T15:48:44.670Z,20.56
2023-03-29T15:51:12.798Z,21.02
2023-03-29T15:53:41.109Z,21.77
2023-03-29T15:56:11.725Z,23.19
2023-03-29T15:58:39.447Z,24.09
2023-03-29T16:01:23.813Z,24.61
2023-03-29T16:03:51.708Z,25.35
2023-03-29T16:06:22.399Z,25.81
2023-03-29T16:08:49.751Z,26.31
2023-03-29T16:11:17.672Z,27.16
2023-03-29T16:13:44.980Z,27.27
2023-03-29T16:16:12.528Z,27.18
2023-03-29T16:18:40.445Z,27.92
2023-03-29T16:21:13.526Z,27.60
2023-03-29T16:23:43.010Z,28.01
2023-03-29T16:26:15.218Z,27.72
2023-03-29T16:28:43.357Z,28.32
2023-03-29T16:31:12.736Z,28.57
2023-03-29T16:33:41.644Z,29.22
2023-03-29T16:36:10.248Z,29.55
2023-03-29T16:38:37.717Z,29.43
2023-03-29T16:41:05.521Z,30.88
2023-03-29T16:43:33.325Z,29.85
2023-03-29T16:46:00.718Z,30.25
2023-03-29T16:48:28.567Z,30.18
2023-03-29T16:50:57.110Z,30.61
2023-03-29T16:53:24.566Z,30.25
2023-03-29T16:55:51.935Z,30.68
2023-03-29T16:58:19.818Z,31.36
2023-03-29T17:00:48.484Z,30.48
2023-03-29T17:03:17.235Z,30.67
2023-03-29T17:05:53.374Z,31.00
2023-03-29T17:08:22.074Z,31.47
2023-03-29T17:10:55.712Z,31.02
2023-03-29T17:13:24.122Z,31.49
2023-03-29T17:15:53.712Z,31.25
2023-03-29T17:18:21.714Z,31.69
2023-03-29T17:20:50.828Z,31.03
2023-03-29T17:23:19.113Z,31.87
2023-03-29T17:25:46.928Z,31.49
2023-03-29T17:28:14.285Z,31.43
2023-03-29T17:30:44.215Z,31.37
2023-03-29T17:33:11.689Z,32.26
2023-03-29T17:35:42.298Z,32.04
2023-03-29T17:38:11.245Z,31.76
2023-03-29T17:40:39.428Z,31.78
2023-03-29T17:43:06.801Z,31.51
2023-03-29T17:45:35.584Z,32.25
2023-03-29T17:48:05.542Z,32.66
2023-03-29T17:50:34.493Z,32.09
2023-03-29T17:53:01.797Z,32.60
2023-03-29T17:55:29.545Z,32.46
2023-03-29T17:57:57.567Z,32.40
2023-03-29T18:00:25.057Z,32.94
2023-03-29T18:02:52.925Z,33.50
2023-03-29T18:05:20.385Z,32.50
2023-03-29T18:07:47.841Z,32.79
2023-03-29T18:10:15.945Z,33.19
2023-03-29T18:12:43.342Z,32.58
2023-03-29T18:15:11.428Z,32.51
2023-03-29T18:17:40.346Z,32.29
2023-03-29T18:20:11.829Z,32.80
2023-03-29T18:22:41.961Z,32.80
2023-03-29T18:25:10.330Z,33.32
2023-03-29T18:27:39.084Z,33.50
2023-03-29T18:30:07.577Z,34.36
2023-03-29T18:32:35.377Z,33.77
2023-03-29T18:35:03.659Z,33.83
2023-03-29T18:37:31.400Z,33.79
2023-03-29T18:39:58.764Z,34.37
2023-03-29T18:42:26.306Z,34.39
2023-03-29T18:44:54.099Z,34.14
2023-03-29T18:47:21.721Z,34.33
2023-03-29T18:49:49.069Z,34.51
2023-03-29T18:52:16.898Z,35.33
2023-03-29T18:54:44.190Z,34.58
2023-03-29T18:57:11.703Z,34.80
2023-03-29T18:59:39.635Z,34.50
2023-03-29T19:02:07.374Z,34.79
2023-03-29T19:04:34.844Z,36.17
2023-03-29T19:07:03.690Z,36.09
2023-03-29T19:09:31.790Z,37.14
2023-03-29T19:11:59.260Z,37.02
2023-03-29T19:14:27.077Z,37.63
2023-03-29T19:16:54.616Z,38.32
2023-03-29T19:19:23.482Z,38.72
2023-03-29T19:21:51.236Z,40.02
2023-03-29T19:24:18.615Z,39.63
2023-03-29T19:26:48.066Z,40.70
2023-03-29T19:29:15.813Z,40.75
2023-03-29T19:31:43.323Z,41.29
2023-03-29T19:34:11.475Z,41.93
2023-03-29T19:36:39.441Z,42.10
2023-03-29T19:39:07.367Z,41.54
2023-03-29T19:41:34.959Z,43.14
2023-03-29T19:44:03.362Z,43.63
2023-03-29T19:46:30.988Z,42.69
2023-03-29T19:48:59.836Z,43.08
2023-03-29T19:51:28.129Z,43.73
2023-03-29T19:53:56.453Z,44.37
2023-03-29T19:56:26.124Z,44.17
2023-03-29T19:58:53.863Z,44.42
2023-03-29T20:01:21.941Z,44.07
2023-03-29T20:03:50.847Z,44.70
2023-03-29T20:06:20.614Z,44.85
2023-03-29T20:08:48.054Z,44.93
2023-03-29T20:11:16.838Z,44.96
2023-03-29T20:13:45.674Z,44.47
2023-03-29T20:16:16.122Z,45.28
2023-03-29T20:18:47.161Z,45.48
2023-03-29T20:21:17.100Z,45.47
2023-03-29T20:23:45.189Z,45.10
2023-03-29T20:26:12.714Z,44.81
2023-03-29T20:28:40.133Z,44.65
2023-03-29T20:31:11.013Z,45.34
2023-03-29T20:33:39.450Z,46.70
2023-03-29T20:36:07.322Z,44.73
2023-03-29T20:38:36.110Z,44.00
2023-03-29T20:41:05.247Z,42.86
2023-03-29T20:43:37.756Z,42.19
2023-03-29T20:46:14.440Z,42.17
2023-03-29T20:48:53.473Z,42.98
2023-03-29T20:51:22.869Z,42.10
2023-03-29T20:53:50.941Z,42.31
2023-03-29T20:56:19.204Z,43.56
2023-03-29T20:58:47.117Z,42.04
2023-03-29T21:01:14.565Z,41.99
2023-03-29T21:03:42.627Z,42.18
2023-03-29T21:06:14.236Z,41.14
2023-03-29T21:08:42.793Z,41.80
2023-03-29T21:11:13.214Z,41.63
2023-03-29T21:13:41.647Z,41.85
2023-03-29T21:16:09.347Z,41.33
2023-03-29T21:18:38.830Z,41.03
2023-03-29T21:21:10.938Z,41.42
2023-03-29T21:23:39.004Z,40.78
2023-03-29T21:26:09.554Z,41.75
2023-03-29T21:28:37.856Z,41.12
2023-03-29T21:31:06.845Z,42.37
2023-03-29T21:33:35.315Z,40.88
2023-03-29T21:36:02.901Z,41.42
2023-03-29T21:38:30.870Z,41.15
2023-03-29T21:40:58.394Z,41.61
2023-03-29T21:43:25.965Z,40.55
2023-03-29T21:45:53.749Z,41.19
2023-03-29T21:48:21.163Z,40.56
2023-03-29T21:50:51.299Z,39.96
2023-03-29T21:53:19.028Z,40.81
2023-03-29T21:55:49.148Z,40.64
2023-03-29T21:58:16.915Z,40.50
2023-03-29T22:00:45.672Z,40.96
2023-03-29T22:03:14.881Z,40.91
2023-03-29T22:05:42.267Z,40.05
2023-03-29T22:08:12.342Z,40.52
2023-03-29T22:10:41.622Z,40.14
2023-03-29T22:13:09.534Z,40.31
2023-03-29T22:15:36.941Z,41.46
2023-03-29T22:18:05.357Z,40.35
2023-03-29T22:20:34.363Z,40.80
2023-03-29T22:23:01.953Z,40.79
2023-03-29T22:25:29.550Z,40.76
2023-03-29T22:27:57.109Z,40.63
2023-03-29T22:30:24.450Z,40.65
2023-03-29T22:32:52.306Z,40.37
2023-03-29T22:35:19.693Z,40.90
2023-03-29T22:37:47.050Z,40.96
2023-03-29T22:40:14.884Z,40.26
2023-03-29T22:42:42.340Z,40.19
2023-03-29T22:45:10.530Z,41.04
2023-03-29T22:47:38.320Z,40.38
2023-03-29T22:50:07.431Z,40.88
2023-03-29T22:52:34.772Z,40.89
2023-03-29T22:55:02.648Z,41.45
2023-03-29T22:57:30.009Z,41.85
2023-03-29T22:59:57.330Z,41.91
2023-03-29T23:02:25.149Z,41.80
2023-03-29T23:04:52.444Z,41.47
2023-03-29T23:07:19.705Z,41.07
2023-03-29T23:09:47.363Z,42.33
2023-03-29T23:12:14.764Z,42.57
2023-03-29T23:14:42.966Z,42.66
2023-03-29T23:17:11.058Z,43.18
2023-03-29T23:19:38.381Z,43.34
2023-03-29T23:22:05.770Z,44.00
2023-03-29T23:24:33.632Z,44.61
2023-03-29T23:27:01.502Z,44.95
2023-03-29T23:29:28.967Z,44.73
2023-03-29T23:31:57.697Z,45.22
2023-03-29T23:34:25.429Z,45.17
2023-03-29T23:36:52.770Z,45.88
2023-03-29T23:39:20.404Z,45.48
2023-03-29T23:41:48.116Z,46.59
2023-03-29T23:44:15.444Z,47.16
2023-03-29T23:46:43.069Z,47.30
2023-03-29T23:49:10.811Z,48.07
2023-03-29T23:51:39.317Z,49.17
2023-03-29T23:54:07.363Z,49.18
2023-03-29T23:56:34.830Z,49.42
2023-03-29T23:59:03.424Z,48.86
